Terminal Aerodrome Forecast
Issued by NWS

Home | Current Version | Previous Version | Text Only | Print | Product List | Glossary On
Versions: 1 2 3 4 5 6 7 8 9 10 11 12 13 14 15 16 17 18 19 20 21 22 23 24 25 26 27 28 29 30
000
FTUS45 KGJT 311122
TAFEGE
TAF
KEGE 311122Z 3112/0112 00000KT P6SM VCFG FEW016 BKN080
      TEMPO 3112/3114 BKN016
     FM311500 VRB03KT P6SM SCT080
     FM311800 30006KT P6SM VCTS SCT090CB BKN120
      TEMPO 3121/0101 VRB10G20KT -TSRA BKN060CB
     FM010200 10005KT P6SM VCSH SCT060 BKN090
      AMD LTD TO CLD VIS AND WIND TIL 311300=

USA.gov is the U.S. government's official web portal to all federal, state and local government web resources and services.